Amur-2507 — XUEC6 — position and weather

sailwx.info

Track history (hours):
 
Tides and Currents Weather Stations Pressure Air Temp Water Temp Dewpoint Dewpoint Depression Visibility Wind Speed Wind Dir Waves Ship Positions

Amur-2507

Last reported at 2014-Nov-27 09:27 UTC. Time now 2014-Dec-21 14:25 UTC.
Position N 41°19' E 029°40'.
Warning: this ship's position is 24 days out of date.

Length 115 m; draft 3.2 m.

Type: Cargo ship. MMSI: 515694000.

Date/timePositionNaut miles runAvg speedWind from/ knotsBaromVisibWave heightAir tempDewpointWater temp
2014-Nov-27 09:27N 41°19' E 029°40'7 7.7
2014-Nov-27 08:33N 41°18' E 029°31'7 7.2
2014-Nov-27 07:33N 41°17' E 029°22'25 5.0
2014-Nov-27 02:33N 40°58' E 028°60'3 2.4
2014-Nov-27 01:24N 40°59' E 028°57'0 0.2
2014-Nov-26 23:26N 40°59' E 028°56'0 0.0
2014-Nov-26 22:26N 40°59' E 028°56'0 0.0
2014-Nov-26 20:20N 40°59' E 028°56'0 0.0
2014-Nov-26 16:17N 40°59' E 028°56'0 0.0
2014-Nov-26 14:26N 40°59' E 028°56'0 0.0
2014-Nov-26 13:32N 40°59' E 028°56'0 0.0
2014-Nov-26 12:20N 40°59' E 028°56'0 0.0
2014-Nov-26 11:20N 40°59' E 028°56'0 0.0
2014-Nov-26 10:32N 40°59' E 028°56'0 0.0
2014-Nov-26 09:20N 40°59' E 028°56'0 0.0
2014-Nov-26 05:20N 40°59' E 028°56'0 0.0
2014-Nov-26 01:08N 40°59' E 028°56'0 0.0
2014-Nov-25 23:14N 40°59' E 028°56'0 0.0
2014-Nov-25 22:27N 40°59' E 028°56'0 0.0
2014-Nov-25 21:33N 40°59' E 028°56'0 0.0
2014-Nov-25 17:16N 40°59' E 028°56'0 0.0
2014-Nov-25 15:22N 40°59' E 028°56'0 0.0
2014-Nov-25 14:04N 40°59' E 028°56'0 0.0
2014-Nov-25 13:28N 40°59' E 028°56'0 0.0
2014-Nov-25 12:28N 40°59' E 028°56'0 0.0
2014-Nov-25 11:16N 40°59' E 028°56'0 0.0
2014-Nov-25 09:28N 40°59' E 028°56'0 0.0
2014-Nov-25 08:22N 40°59' E 028°56'0 0.0
2014-Nov-25 06:28N 40°59' E 028°56'0 0.0
2014-Nov-25 02:04N 40°59' E 028°56'0 0.1
2014-Nov-25 01:22N 40°59' E 028°56'0 0.0
2014-Nov-25 00:29N 40°59' E 028°56'0 0.0
2014-Nov-24 23:29N 40°59' E 028°56'0 0.0
2014-Nov-24 22:05N 40°59' E 028°56'0 0.0
2014-Nov-24 20:23N 40°59' E 028°56'0 0.0
2014-Nov-24 18:29N 40°59' E 028°56'0 0.0
2014-Nov-24 17:20N 40°59' E 028°56'0 0.0
2014-Nov-24 14:26N 40°59' E 028°56'0 0.0
2014-Nov-24 13:32N 40°59' E 028°56'0 0.0
2014-Nov-24 12:32N 40°59' E 028°56'2 2.2
2014-Nov-24 11:30N 40°57' E 028°57'6 5.9
2014-Nov-24 10:33N 40°52' E 029°01'7 6.8
2014-Nov-24 09:33N 40°51' E 029°10'1 0.5
2014-Nov-24 08:22N 40°51' E 029°11'0 0.0
2014-Nov-24 07:28N 40°51' E 029°11'0 0.0
2014-Nov-24 06:28N 40°51' E 029°11'0 0.0
2014-Nov-24 05:28N 40°51' E 029°11'0 0.0
2014-Nov-24 04:28N 40°51' E 029°11'0 0.0
2014-Nov-24 03:16N 40°51' E 029°11'0 0.0
2014-Nov-24 02:22N 40°51' E 029°11'0 0.0
2014-Nov-24 01:16N 40°51' E 029°11'0 0.0
2014-Nov-24 00:28N 40°51' E 029°11'0 0.0
2014-Nov-23 23:28N 40°51' E 029°11'0 0.0
2014-Nov-23 22:28N 40°51' E 029°11'0 0.0
2014-Nov-23 21:28N 40°51' E 029°11'0 0.0
2014-Nov-23 20:28N 40°51' E 029°11'0 0.0
2014-Nov-23 19:28N 40°51' E 029°11'0 0.0
2014-Nov-23 18:16N 40°51' E 029°11'0 0.0
2014-Nov-23 17:28N 40°51' E 029°10'0 0.0
2014-Nov-23 16:16N 40°51' E 029°10'0 0.0
2014-Nov-23 15:28N 40°51' E 029°10'0 0.0
2014-Nov-23 14:22N 40°51' E 029°11'0 0.0
2014-Nov-23 13:28N 40°51' E 029°11'0 0.0
2014-Nov-23 12:28N 40°51' E 029°11'0 0.1
2014-Nov-23 11:28N 40°51' E 029°11'0 0.0
2014-Nov-23 10:28N 40°51' E 029°11'0 0.0
2014-Nov-23 09:28N 40°51' E 029°11'0 0.0
2014-Nov-23 08:28N 40°51' E 029°11'0 0.0
2014-Nov-23 07:28N 40°51' E 029°11'0 0.0
2014-Nov-23 06:28N 40°51' E 029°11'0 0.0
2014-Nov-23 05:28N 40°51' E 029°11'0 0.0
2014-Nov-23 04:28N 40°51' E 029°11'0 0.0
2014-Nov-23 03:22N 40°51' E 029°11'0 0.0
2014-Nov-23 02:28N 40°51' E 029°11'0 0.0
2014-Nov-23 01:28N 40°51' E 029°11'0 0.0
2014-Nov-23 00:16N 40°51' E 029°11'0 0.0
2014-Nov-22 23:28N 40°51' E 029°11'0 0.0
2014-Nov-22 22:28N 40°51' E 029°11'0 0.0
2014-Nov-22 21:28N 40°51' E 029°11'0 0.0
2014-Nov-22 20:33N 40°51' E 029°11'0 0.0
2014-Nov-22 19:33N 40°51' E 029°11'0 0.0
2014-Nov-22 18:27N 40°51' E 029°11'0 0.0
2014-Nov-22 17:21N 40°51' E 029°11'0 0.0
2014-Nov-22 16:18N 40°51' E 029°11'0 0.0
2014-Nov-22 15:14N 40°51' E 029°11'0 0.0
2014-Nov-22 13:27N 40°51' E 029°11'0 0.0
2014-Nov-22 12:30N 40°51' E 029°11'3 3.0
2014-Nov-22 11:33N 40°49' E 029°08'7 7.3
2014-Nov-22 10:33N 40°49' E 028°59'  
Track history (hours):
 
Tides and Currents Weather Stations Pressure Air Temp Water Temp Dewpoint Dewpoint Depression Visibility Wind Speed Wind Dir Waves Ship Positions

Amur-2507

Last reported at 2014-Nov-27 09:27 UTC. Time now 2014-Dec-21 14:25 UTC.
Position N 41°19' E 029°40'.
Warning: this ship's position is 24 days out of date.

Length 115 m; draft 3.2 m.

Type: Cargo ship. MMSI: 515694000.

Date/timePositionNaut miles runAvg speedWind from/ knotsBaromVisibWave heightAir tempDewpointWater temp
2014-Nov-27 09:27N 41°19' E 029°40'7 7.7
2014-Nov-27 08:33N 41°18' E 029°31'7 7.2
2014-Nov-27 07:33N 41°17' E 029°22'25 5.0
2014-Nov-27 02:33N 40°58' E 028°60'3 2.4
2014-Nov-27 01:24N 40°59' E 028°57'0 0.2
2014-Nov-26 23:26N 40°59' E 028°56'0 0.0
2014-Nov-26 22:26N 40°59' E 028°56'0 0.0
2014-Nov-26 20:20N 40°59' E 028°56'0 0.0
2014-Nov-26 16:17N 40°59' E 028°56'0 0.0
2014-Nov-26 14:26N 40°59' E 028°56'0 0.0
2014-Nov-26 13:32N 40°59' E 028°56'0 0.0
2014-Nov-26 12:20N 40°59' E 028°56'0 0.0
2014-Nov-26 11:20N 40°59' E 028°56'0 0.0
2014-Nov-26 10:32N 40°59' E 028°56'0 0.0
2014-Nov-26 09:20N 40°59' E 028°56'0 0.0
2014-Nov-26 05:20N 40°59' E 028°56'0 0.0
2014-Nov-26 01:08N 40°59' E 028°56'0 0.0
2014-Nov-25 23:14N 40°59' E 028°56'0 0.0
2014-Nov-25 22:27N 40°59' E 028°56'0 0.0
2014-Nov-25 21:33N 40°59' E 028°56'0 0.0
2014-Nov-25 17:16N 40°59' E 028°56'0 0.0
2014-Nov-25 15:22N 40°59' E 028°56'0 0.0
2014-Nov-25 14:04N 40°59' E 028°56'0 0.0
2014-Nov-25 13:28N 40°59' E 028°56'0 0.0
2014-Nov-25 12:28N 40°59' E 028°56'0 0.0
2014-Nov-25 11:16N 40°59' E 028°56'0 0.0
2014-Nov-25 09:28N 40°59' E 028°56'0 0.0
2014-Nov-25 08:22N 40°59' E 028°56'0 0.0
2014-Nov-25 06:28N 40°59' E 028°56'0 0.0
2014-Nov-25 02:04N 40°59' E 028°56'0 0.1
2014-Nov-25 01:22N 40°59' E 028°56'0 0.0
2014-Nov-25 00:29N 40°59' E 028°56'0 0.0
2014-Nov-24 23:29N 40°59' E 028°56'0 0.0
2014-Nov-24 22:05N 40°59' E 028°56'0 0.0
2014-Nov-24 20:23N 40°59' E 028°56'0 0.0
2014-Nov-24 18:29N 40°59' E 028°56'0 0.0
2014-Nov-24 17:20N 40°59' E 028°56'0 0.0
2014-Nov-24 14:26N 40°59' E 028°56'0 0.0
2014-Nov-24 13:32N 40°59' E 028°56'0 0.0
2014-Nov-24 12:32N 40°59' E 028°56'2 2.2
2014-Nov-24 11:30N 40°57' E 028°57'6 5.9
2014-Nov-24 10:33N 40°52' E 029°01'7 6.8
2014-Nov-24 09:33N 40°51' E 029°10'1 0.5
2014-Nov-24 08:22N 40°51' E 029°11'0 0.0
2014-Nov-24 07:28N 40°51' E 029°11'0 0.0
2014-Nov-24 06:28N 40°51' E 029°11'0 0.0
2014-Nov-24 05:28N 40°51' E 029°11'0 0.0
2014-Nov-24 04:28N 40°51' E 029°11'0 0.0
2014-Nov-24 03:16N 40°51' E 029°11'0 0.0
2014-Nov-24 02:22N 40°51' E 029°11'0 0.0
2014-Nov-24 01:16N 40°51' E 029°11'0 0.0
2014-Nov-24 00:28N 40°51' E 029°11'0 0.0
2014-Nov-23 23:28N 40°51' E 029°11'0 0.0
2014-Nov-23 22:28N 40°51' E 029°11'0 0.0
2014-Nov-23 21:28N 40°51' E 029°11'0 0.0
2014-Nov-23 20:28N 40°51' E 029°11'0 0.0
2014-Nov-23 19:28N 40°51' E 029°11'0 0.0
2014-Nov-23 18:16N 40°51' E 029°11'0 0.0
2014-Nov-23 17:28N 40°51' E 029°10'0 0.0
2014-Nov-23 16:16N 40°51' E 029°10'0 0.0
2014-Nov-23 15:28N 40°51' E 029°10'0 0.0
2014-Nov-23 14:22N 40°51' E 029°11'0 0.0
2014-Nov-23 13:28N 40°51' E 029°11'0 0.0
2014-Nov-23 12:28N 40°51' E 029°11'0 0.1
2014-Nov-23 11:28N 40°51' E 029°11'0 0.0
2014-Nov-23 10:28N 40°51' E 029°11'0 0.0
2014-Nov-23 09:28N 40°51' E 029°11'0 0.0
2014-Nov-23 08:28N 40°51' E 029°11'0 0.0
2014-Nov-23 07:28N 40°51' E 029°11'0 0.0
2014-Nov-23 06:28N 40°51' E 029°11'0 0.0
2014-Nov-23 05:28N 40°51' E 029°11'0 0.0
2014-Nov-23 04:28N 40°51' E 029°11'0 0.0
2014-Nov-23 03:22N 40°51' E 029°11'0 0.0
2014-Nov-23 02:28N 40°51' E 029°11'0 0.0
2014-Nov-23 01:28N 40°51' E 029°11'0 0.0
2014-Nov-23 00:16N 40°51' E 029°11'0 0.0
2014-Nov-22 23:28N 40°51' E 029°11'0 0.0
2014-Nov-22 22:28N 40°51' E 029°11'0 0.0
2014-Nov-22 21:28N 40°51' E 029°11'0 0.0
2014-Nov-22 20:33N 40°51' E 029°11'0 0.0
2014-Nov-22 19:33N 40°51' E 029°11'0 0.0
2014-Nov-22 18:27N 40°51' E 029°11'0 0.0
2014-Nov-22 17:21N 40°51' E 029°11'0 0.0
2014-Nov-22 16:18N 40°51' E 029°11'0 0.0
2014-Nov-22 15:14N 40°51' E 029°11'0 0.0
2014-Nov-22 13:27N 40°51' E 029°11'0 0.0
2014-Nov-22 12:30N 40°51' E 029°11'3 3.0
2014-Nov-22 11:33N 40°49' E 029°08'7 7.3
2014-Nov-22 10:33N 40°49' E 028°59'  

Dump ship's entire track history